Time;durP1;ratioP1;P1;durP2;ratioP2;P2;SDS_P1;SDS_P2;PMS_P1;PMS_P2;Temp;Humidity;BMP_temperature;BMP_pressure;BME280_temperature;BME280_humidity;BME280_pressure;Samples;Min_cycle;Max_cycle;Signal;HPM_P1;HPM_P2
2023/09/11 00:00:19;;;;;;;3.20;3.00;;;22.90;99.90;;;;;;5012795;28;20482;-66
2023/09/11 00:02:46;;;;;;;3.50;3.22;;;23.00;99.90;;;;;;5011648;28;20233;-66
2023/09/11 00:05:13;;;;;;;3.50;3.30;;;22.90;99.90;;;;;;5006659;28;20314;-66
2023/09/11 00:07:41;;;;;;;4.55;2.95;;;22.90;99.90;;;;;;5012726;28;20230;-65
2023/09/11 00:10:08;;;;;;;3.28;2.97;;;22.80;99.90;;;;;;4995801;28;20682;-65
2023/09/11 00:12:35;;;;;;;3.53;3.28;;;22.90;99.90;;;;;;4997023;28;20709;-66
2023/09/11 00:15:05;;;;;;;2.80;2.60;;;22.90;99.90;;;;;;5012943;28;20194;-66
2023/09/11 00:17:32;;;;;;;3.17;2.97;;;22.90;99.90;;;;;;5012374;28;20261;-66
2023/09/11 00:19:59;;;;;;;3.17;2.97;;;22.90;99.90;;;;;;5010883;28;20199;-66
2023/09/11 00:22:26;;;;;;;5.35;3.17;;;22.90;99.90;;;;;;5011086;28;20224;-66
2023/09/11 00:24:54;;;;;;;3.67;3.38;;;22.90;99.90;;;;;;5019903;28;20207;-66
2023/09/11 00:27:21;;;;;;;4.13;3.63;;;22.80;99.90;;;;;;5012629;28;20194;-66
2023/09/11 00:29:48;;;;;;;3.92;3.63;;;22.70;99.90;;;;;;4995749;28;20221;-66
2023/09/11 00:32:16;;;;;;;3.85;3.55;;;22.70;99.90;;;;;;5010248;28;20705;-66
2023/09/11 00:34:44;;;;;;;3.50;3.20;;;22.60;99.90;;;;;;5013018;28;20211;-66
2023/09/11 00:37:11;;;;;;;3.28;2.85;;;22.60;99.90;;;;;;5013084;28;20203;-66
2023/09/11 00:39:40;;;;;;;3.03;2.83;;;22.70;99.90;;;;;;5013603;28;20276;-66
2023/09/11 00:42:07;;;;;;;3.63;3.35;;;22.70;99.90;;;;;;5010113;28;20310;-66
2023/09/11 00:44:34;;;;;;;3.58;3.15;;;22.70;99.90;;;;;;5018663;28;20198;-66
2023/09/11 00:47:02;;;;;;;3.65;3.35;;;22.70;99.90;;;;;;4990454;28;20203;-66
2023/09/11 00:49:31;;;;;;;2.83;2.70;;;22.60;99.90;;;;;;5018269;28;20199;-66
2023/09/11 00:51:58;;;;;;;3.70;2.95;;;22.70;99.90;;;;;;5016221;28;20191;-65
2023/09/11 00:54:27;;;;;;;3.08;2.63;;;22.70;99.90;;;;;;5019501;28;20194;-65
2023/09/11 00:56:54;;;;;;;2.80;2.60;;;22.60;99.90;;;;;;5000558;28;20207;-65
2023/09/11 00:59:22;;;;;;;3.63;3.10;;;22.70;99.90;;;;;;5024515;28;20272;-65
2023/09/11 01:01:50;;;;;;;2.70;2.50;;;22.70;99.90;;;;;;5426056;22;20510;-64
2023/09/11 01:04:17;;;;;;;2.85;2.63;;;22.70;99.90;;;;;;4994726;28;20215;-65
2023/09/11 01:06:47;;;;;;;2.88;2.67;;;22.70;99.90;;;;;;5008905;28;20744;-66
2023/09/11 01:09:14;;;;;;;4.13;3.20;;;22.70;99.90;;;;;;4995166;28;20191;-65
2023/09/11 01:11:41;;;;;;;3.60;3.30;;;22.70;99.90;;;;;;5008978;28;20348;-65
2023/09/11 01:14:08;;;;;;;3.70;3.38;;;22.60;99.90;;;;;;5006238;28;20298;-65
2023/09/11 01:16:44;;;;;;;3.90;3.60;;;22.50;99.90;;;;;;5007949;28;20737;-65
2023/09/11 01:19:26;;;;;;;4.10;3.20;;;22.60;99.90;;;;;;5006518;28;20321;-65
2023/09/11 01:22:23;;;;;;;3.50;3.20;;;22.50;99.90;;;;;;5007069;28;20242;-65
2023/09/11 01:25:16;;;;;;;3.85;3.30;;;22.50;99.90;;;;;;5007625;28;20191;-65
2023/09/11 01:27:57;;;;;;;3.47;3.20;;;22.50;99.90;;;;;;5008358;28;20186;-65
2023/09/11 01:30:27;;;;;;;3.60;3.35;;;22.50;99.90;;;;;;4992361;28;20306;-65
2023/09/11 01:32:54;;;;;;;3.65;3.10;;;22.40;99.90;;;;;;5007874;28;20376;-65
2023/09/11 01:35:21;;;;;;;3.45;3.17;;;22.40;99.90;;;;;;5006768;28;20203;-65
2023/09/11 01:37:49;;;;;;;3.40;3.10;;;22.30;99.90;;;;;;5006595;28;20288;-65
2023/09/11 01:40:16;;;;;;;3.45;3.00;;;22.30;99.90;;;;;;5007824;28;20640;-65
2023/09/11 01:42:47;;;;;;;3.10;2.90;;;22.30;99.90;;;;;;5006123;28;20682;-65
2023/09/11 01:45:15;;;;;;;3.15;2.95;;;22.30;99.90;;;;;;5006337;28;20195;-65
2023/09/11 01:47:45;;;;;;;3.10;2.90;;;22.30;99.90;;;;;;5009260;28;20748;-65
2023/09/11 01:50:15;;;;;;;3.28;2.90;;;22.30;99.90;;;;;;4994963;28;20226;-65
2023/09/11 01:52:44;;;;;;;3.30;3.00;;;22.30;99.90;;;;;;5006932;28;20221;-65
2023/09/11 01:55:11;;;;;;;3.63;3.33;;;22.20;99.90;;;;;;5006626;28;20203;-65
2023/09/11 01:57:38;;;;;;;4.80;3.70;;;22.20;99.90;;;;;;4993081;28;20204;-65
2023/09/11 02:00:08;;;;;;;3.08;2.78;;;22.10;99.90;;;;;;5005423;28;20309;-65
2023/09/11 02:02:39;;;;;;;3.17;2.97;;;22.00;99.90;;;;;;5005926;28;20292;-65
2023/09/11 02:05:09;;;;;;;3.90;3.33;;;22.00;99.90;;;;;;5005691;28;22053;-65
2023/09/11 02:07:36;;;;;;;3.55;3.05;;;22.00;99.90;;;;;;4994903;28;20214;-65
2023/09/11 02:10:04;;;;;;;3.63;3.42;;;22.00;99.90;;;;;;5006125;28;20681;-65
2023/09/11 02:12:31;;;;;;;3.88;3.55;;;21.90;99.90;;;;;;4991910;28;20527;-65
2023/09/11 02:14:58;;;;;;;4.07;3.70;;;21.90;99.90;;;;;;5004177;28;20198;-65
2023/09/11 02:17:25;;;;;;;4.20;3.58;;;21.90;99.90;;;;;;5006340;28;20288;-65
2023/09/11 02:19:52;;;;;;;4.07;3.55;;;21.90;99.90;;;;;;5006877;28;20856;-66
2023/09/11 02:22:21;;;;;;;3.65;3.35;;;21.90;99.90;;;;;;5007052;28;20202;-65
2023/09/11 02:24:48;;;;;;;4.00;3.70;;;21.80;99.90;;;;;;4993672;28;20194;-65
2023/09/11 02:27:15;;;;;;;4.03;3.63;;;21.80;99.90;;;;;;5006935;28;20237;-65
2023/09/11 02:29:42;;;;;;;4.72;3.88;;;21.80;99.90;;;;;;5006344;28;20203;-65
2023/09/11 02:32:09;;;;;;;4.00;3.55;;;21.80;99.90;;;;;;5011159;28;20771;-64
2023/09/11 02:34:36;;;;;;;5.72;3.78;;;21.70;99.90;;;;;;5006101;28;20265;-65
2023/09/11 02:37:03;;;;;;;5.70;4.15;;;21.70;99.90;;;;;;5006676;28;20199;-64
2023/09/11 02:39:32;;;;;;;4.47;4.07;;;21.70;99.90;;;;;;5005680;28;20221;-65
2023/09/11 02:41:59;;;;;;;5.30;3.80;;;21.60;99.90;;;;;;5003806;28;20752;-64
2023/09/11 02:44:26;;;;;;;4.68;3.50;;;21.60;99.90;;;;;;5005097;28;20203;-65
2023/09/11 02:46:53;;;;;;;3.50;3.20;;;21.60;99.90;;;;;;4994232;28;20625;-64
2023/09/11 02:49:21;;;;;;;4.25;3.85;;;21.60;99.90;;;;;;5004978;28;20195;-65
2023/09/11 02:51:48;;;;;;;4.10;3.80;;;21.60;99.90;;;;;;5007322;28;22044;-64
2023/09/11 02:54:15;;;;;;;5.85;4.03;;;21.60;99.90;;;;;;5005633;28;20252;-63
2023/09/11 02:56:43;;;;;;;3.53;3.30;;;21.60;99.90;;;;;;5006395;28;20209;-63
2023/09/11 02:59:10;;;;;;;3.88;3.58;;;21.60;99.90;;;;;;5003781;28;20234;-63
2023/09/11 03:01:37;;;;;;;6.22;4.20;;;21.60;99.90;;;;;;4989451;28;20511;-62
2023/09/11 03:04:05;;;;;;;4.00;3.70;;;21.50;99.90;;;;;;4989271;28;20235;-63
2023/09/11 03:06:32;;;;;;;3.90;3.60;;;21.40;99.90;;;;;;5005960;28;20933;-63
2023/09/11 03:08:59;;;;;;;3.72;3.42;;;21.40;99.90;;;;;;5006490;28;20199;-62
2023/09/11 03:11:27;;;;;;;3.42;3.20;;;21.40;99.90;;;;;;4996203;28;20298;-63
2023/09/11 03:13:56;;;;;;;4.03;3.72;;;21.40;99.90;;;;;;5007870;28;20701;-63
2023/09/11 03:16:23;;;;;;;5.03;3.17;;;21.50;99.90;;;;;;4992934;28;21068;-63
2023/09/11 03:18:56;;;;;;;4.38;3.83;;;21.50;99.90;;;;;;4993242;28;20191;-63
2023/09/11 03:21:24;;;;;;;3.85;3.47;;;21.40;99.90;;;;;;4992385;28;20371;-63
2023/09/11 03:23:51;;;;;;;3.67;3.38;;;21.40;99.90;;;;;;4995613;28;20210;-63
2023/09/11 03:26:18;;;;;;;4.18;3.60;;;21.40;99.90;;;;;;4992314;28;20227;-62
2023/09/11 03:28:50;;;;;;;5.45;3.95;;;21.40;99.90;;;;;;5009389;28;20262;-63
2023/09/11 03:31:20;;;;;;;3.50;3.28;;;21.30;99.90;;;;;;4993333;28;20203;-62
2023/09/11 03:33:48;;;;;;;3.63;3.33;;;21.30;99.90;;;;;;4989692;28;20633;-63
2023/09/11 03:36:16;;;;;;;3.20;3.00;;;21.30;99.90;;;;;;5010592;28;20198;-62
2023/09/11 03:38:43;;;;;;;3.25;3.05;;;21.30;99.90;;;;;;5009713;28;20959;-62
2023/09/11 03:41:11;;;;;;;3.42;3.17;;;21.30;99.90;;;;;;5001950;28;20203;-63
2023/09/11 03:43:38;;;;;;;3.50;3.20;;;21.30;99.90;;;;;;4995835;28;20207;-63
2023/09/11 03:46:05;;;;;;;3.40;3.10;;;21.30;99.90;;;;;;4993527;28;20205;-63
2023/09/11 03:48:35;;;;;;;3.78;3.45;;;21.30;99.90;;;;;;4996537;28;20286;-62
2023/09/11 03:51:02;;;;;;;3.88;3.53;;;21.30;99.90;;;;;;4994904;28;20239;-63
2023/09/11 03:53:30;;;;;;;3.47;3.28;;;21.20;99.90;;;;;;4994587;28;20784;-63
2023/09/11 03:55:57;;;;;;;3.30;3.10;;;21.20;99.90;;;;;;4995616;28;20200;-62
2023/09/11 03:58:24;;;;;;;4.10;3.70;;;21.20;99.90;;;;;;4991796;28;20199;-63
2023/09/11 04:00:51;;;;;;;3.95;3.65;;;21.20;99.90;;;;;;5009174;28;20312;-63
2023/09/11 04:03:18;;;;;;;3.88;3.53;;;21.20;99.90;;;;;;4993158;28;20702;-62
2023/09/11 04:05:47;;;;;;;3.97;3.60;;;21.10;99.90;;;;;;5009981;28;20244;-63
2023/09/11 04:08:14;;;;;;;4.43;3.50;;;21.10;99.90;;;;;;5009189;28;20275;-63
2023/09/11 04:10:41;;;;;;;3.28;3.08;;;21.10;99.90;;;;;;5006064;28;20211;-63
2023/09/11 04:13:08;;;;;;;4.88;3.03;;;21.10;99.90;;;;;;5007858;28;20284;-63
2023/09/11 04:15:36;;;;;;;3.30;3.00;;;21.10;99.90;;;;;;5008533;28;20308;-62
2023/09/11 04:18:04;;;;;;;3.47;3.17;;;21.10;99.90;;;;;;5007455;28;20222;-63
2023/09/11 04:20:33;;;;;;;2.83;2.63;;;21.10;99.90;;;;;;5006414;28;20233;-63
2023/09/11 04:23:03;;;;;;;3.42;3.10;;;21.10;99.90;;;;;;4992050;28;20294;-62
2023/09/11 04:25:30;;;;;;;3.00;2.80;;;21.10;99.90;;;;;;5006889;28;20650;-63
2023/09/11 04:27:58;;;;;;;3.35;3.05;;;21.10;99.90;;;;;;4990044;28;20194;-63
2023/09/11 04:30:25;;;;;;;3.20;2.90;;;21.20;99.90;;;;;;5009037;28;20226;-63
2023/09/11 04:32:53;;;;;;;3.25;2.97;;;21.20;99.90;;;;;;5000384;28;20226;-63
2023/09/11 04:35:20;;;;;;;3.13;2.83;;;21.20;99.90;;;;;;5007520;28;20211;-63
2023/09/11 04:37:47;;;;;;;3.30;3.00;;;21.20;99.90;;;;;;4990878;28;20206;-62
2023/09/11 04:40:16;;;;;;;2.50;2.40;;;21.20;99.90;;;;;;4996526;28;20206;-63
2023/09/11 04:42:45;;;;;;;3.03;2.70;;;21.20;99.90;;;;;;4992130;28;20203;-63
2023/09/11 04:45:12;;;;;;;3.13;2.88;;;21.20;99.90;;;;;;5007373;28;20266;-62
2023/09/11 04:47:39;;;;;;;3.17;2.83;;;21.20;99.90;;;;;;4992416;28;20207;-63
2023/09/11 04:50:07;;;;;;;2.95;2.75;;;21.20;99.90;;;;;;4995385;28;20315;-62
2023/09/11 04:52:34;;;;;;;3.55;3.25;;;21.20;99.90;;;;;;5007621;28;20215;-62
2023/09/11 04:55:01;;;;;;;3.10;2.63;;;21.20;99.90;;;;;;5006949;28;20818;-63
2023/09/11 04:57:30;;;;;;;2.95;2.72;;;21.20;99.90;;;;;;5007433;28;20635;-63
2023/09/11 04:59:57;;;;;;;2.70;2.50;;;21.30;99.90;;;;;;5007749;28;20210;-62
2023/09/11 05:02:24;;;;;;;2.88;2.67;;;21.20;99.90;;;;;;5002256;28;20258;-62
2023/09/11 05:04:51;;;;;;;2.95;2.67;;;21.20;99.90;;;;;;4986172;28;20194;-63
2023/09/11 05:07:19;;;;;;;2.55;2.35;;;21.30;99.90;;;;;;4992247;28;20778;-63
2023/09/11 05:09:46;;;;;;;2.70;2.50;;;21.30;99.90;;;;;;4986056;28;20675;-63
2023/09/11 05:12:13;;;;;;;3.20;2.90;;;21.30;99.90;;;;;;4991166;28;20215;-62
2023/09/11 05:14:41;;;;;;;3.20;3.00;;;21.30;99.90;;;;;;4989519;28;20200;-63
2023/09/11 05:17:08;;;;;;;3.20;2.78;;;21.30;99.90;;;;;;4989834;28;20204;-63
2023/09/11 05:19:36;;;;;;;3.45;2.60;;;21.40;99.90;;;;;;4986957;28;20273;-63
2023/09/11 05:22:03;;;;;;;3.50;3.10;;;21.40;99.90;;;;;;4989160;28;20196;-63
2023/09/11 05:24:31;;;;;;;3.38;3.08;;;21.40;99.90;;;;;;4985495;28;20228;-63
2023/09/11 05:26:59;;;;;;;3.28;2.80;;;21.40;99.90;;;;;;4988841;28;20203;-63
2023/09/11 05:29:26;;;;;;;3.10;2.90;;;21.40;99.90;;;;;;4987788;28;20238;-63
2023/09/11 05:31:54;;;;;;;3.78;3.17;;;21.40;99.90;;;;;;4987911;28;20219;-63
2023/09/11 05:34:21;;;;;;;3.13;2.70;;;21.50;99.90;;;;;;4990764;28;20845;-63
2023/09/11 05:36:48;;;;;;;2.60;2.40;;;21.50;99.90;;;;;;4987469;28;20215;-63
2023/09/11 05:39:15;;;;;;;2.53;2.33;;;21.50;99.90;;;;;;4986681;28;20279;-63
2023/09/11 05:41:42;;;;;;;2.92;2.60;;;21.60;99.90;;;;;;4989188;28;20571;-63
2023/09/11 05:44:09;;;;;;;2.47;2.28;;;21.60;99.90;;;;;;4987356;28;20511;-63
2023/09/11 05:46:37;;;;;;;2.53;2.35;;;21.70;99.90;;;;;;4987784;28;20203;-63
2023/09/11 05:49:05;;;;;;;2.42;2.22;;;21.90;99.90;;;;;;4987597;28;20448;-64
2023/09/11 05:51:32;;;;;;;2.50;2.30;;;21.80;99.90;;;;;;5001170;28;20298;-63
2023/09/11 05:53:59;;;;;;;3.58;2.25;;;21.80;99.90;;;;;;5000421;28;21079;-63
2023/09/11 05:56:26;;;;;;;3.03;2.47;;;21.90;99.90;;;;;;4986373;28;20203;-63
2023/09/11 05:58:54;;;;;;;2.47;2.28;;;21.90;99.90;;;;;;4987891;28;20809;-63
2023/09/11 06:01:21;;;;;;;2.97;2.67;;;21.90;99.90;;;;;;4988001;28;20231;-63
2023/09/11 06:03:48;;;;;;;2.95;2.60;;;22.00;99.90;;;;;;5003429;28;20300;-63
2023/09/11 06:06:17;;;;;;;2.88;2.67;;;22.10;99.90;;;;;;5003858;28;20320;-63
2023/09/11 06:08:44;;;;;;;2.88;2.55;;;22.10;99.90;;;;;;4989560;28;20777;-63
2023/09/11 06:11:11;;;;;;;2.88;2.45;;;22.20;99.90;;;;;;5004898;28;20256;-63
2023/09/11 06:13:38;;;;;;;2.50;2.40;;;22.20;99.90;;;;;;5004427;28;20319;-62
2023/09/11 06:16:05;;;;;;;3.20;2.90;;;22.30;99.90;;;;;;5005076;28;20201;-63
2023/09/11 06:18:32;;;;;;;2.22;2.13;;;22.30;99.90;;;;;;5003922;28;20195;-63
2023/09/11 06:21:00;;;;;;;3.80;2.50;;;22.40;99.90;;;;;;5002939;28;20317;-63
2023/09/11 06:23:28;;;;;;;2.70;2.50;;;22.50;99.90;;;;;;5004244;28;20569;-62
2023/09/11 06:25:55;;;;;;;2.60;2.22;;;22.50;99.90;;;;;;5003333;28;20206;-63
2023/09/11 06:28:22;;;;;;;5.28;3.00;;;22.50;99.90;;;;;;5002551;28;20643;-63
2023/09/11 06:30:49;;;;;;;2.60;2.50;;;22.60;99.90;;;;;;5001249;28;20209;-63
2023/09/11 06:33:17;;;;;;;3.50;2.80;;;22.60;99.90;;;;;;5005992;28;20234;-63
2023/09/11 06:35:51;;;;;;;2.85;2.40;;;22.70;99.90;;;;;;5004958;28;20653;-63
2023/09/11 06:38:18;;;;;;;2.50;2.30;;;22.80;99.90;;;;;;5006119;28;20480;-63
2023/09/11 06:40:47;;;;;;;2.53;2.42;;;22.80;99.90;;;;;;5005269;28;20666;-64
2023/09/11 06:43:14;;;;;;;2.20;2.10;;;22.90;99.90;;;;;;5007453;28;20198;-64
2023/09/11 06:45:41;;;;;;;2.35;2.25;;;22.90;99.90;;;;;;4995554;28;20214;-63
2023/09/11 06:48:11;;;;;;;2.60;2.40;;;23.00;99.90;;;;;;5007260;28;20259;-63
2023/09/11 06:50:38;;;;;;;2.20;2.10;;;23.10;99.90;;;;;;5010502;28;20199;-62
2023/09/11 06:53:07;;;;;;;2.60;2.40;;;23.20;99.90;;;;;;5012691;28;20790;-62
2023/09/11 06:55:34;;;;;;;2.15;1.92;;;23.20;99.90;;;;;;5012597;28;20256;-62
2023/09/11 06:58:03;;;;;;;2.38;2.28;;;23.30;99.90;;;;;;5030379;28;20198;-62
2023/09/11 07:00:30;;;;;;;3.60;2.50;;;23.40;99.90;;;;;;5015318;28;20186;-62
2023/09/11 07:02:57;;;;;;;6.13;3.05;;;23.50;99.90;;;;;;5011088;28;20234;-62
2023/09/11 07:05:26;;;;;;;2.95;2.75;;;23.50;99.90;;;;;;5010368;28;20257;-62
2023/09/11 07:07:53;;;;;;;3.63;3.25;;;23.50;99.90;;;;;;5030411;28;20286;-62
2023/09/11 07:10:20;;;;;;;3.50;3.20;;;23.60;99.90;;;;;;5025313;28;20198;-62
2023/09/11 07:12:49;;;;;;;4.80;3.25;;;23.70;99.90;;;;;;5010882;28;20203;-62
2023/09/11 07:15:18;;;;;;;4.60;3.47;;;23.80;99.90;;;;;;5009771;28;20585;-62
2023/09/11 07:17:48;;;;;;;4.47;3.78;;;23.80;99.90;;;;;;5009194;28;20234;-62
2023/09/11 07:20:17;;;;;;;7.68;4.88;;;23.80;99.90;;;;;;5009141;28;20538;-63
2023/09/11 07:22:44;;;;;;;8.68;4.97;;;23.90;99.90;;;;;;5009271;28;20238;-62
2023/09/11 07:25:14;;;;;;;5.38;3.92;;;23.90;99.90;;;;;;5008604;28;20206;-63
2023/09/11 07:27:41;;;;;;;4.28;3.90;;;24.00;99.90;;;;;;5008393;28;20270;-63
2023/09/11 07:30:09;;;;;;;7.05;4.00;;;24.00;99.90;;;;;;5010347;28;20731;-62
2023/09/11 07:32:38;;;;;;;9.75;3.85;;;24.00;99.90;;;;;;5008140;28;20318;-62
2023/09/11 07:35:06;;;;;;;4.65;4.20;;;24.10;99.90;;;;;;5006924;28;20194;-62
2023/09/11 07:37:33;;;;;;;7.07;4.80;;;24.20;99.90;;;;;;5008518;28;20195;-62
2023/09/11 07:40:00;;;;;;;7.70;5.03;;;24.20;99.90;;;;;;5008331;28;20277;-62
2023/09/11 07:42:27;;;;;;;5.38;4.28;;;24.20;99.90;;;;;;5010793;28;20308;-62
2023/09/11 07:44:55;;;;;;;7.90;4.90;;;24.30;99.90;;;;;;5006623;28;20643;-62
2023/09/11 07:47:22;;;;;;;7.78;4.18;;;24.40;99.90;;;;;;5007006;28;20293;-63
2023/09/11 07:49:50;;;;;;;4.00;3.58;;;24.40;99.90;;;;;;5007367;28;20190;-63
2023/09/11 07:52:17;;;;;;;6.30;3.00;;;24.50;99.90;;;;;;5008204;28;20727;-63
2023/09/11 07:54:44;;;;;;;4.43;3.10;;;24.50;99.90;;;;;;4992689;28;20301;-63
2023/09/11 07:57:12;;;;;;;9.80;4.63;;;24.60;99.90;;;;;;4995350;28;20202;-63
2023/09/11 07:59:40;;;;;;;7.18;4.95;;;24.60;99.90;;;;;;5006374;28;20617;-63
2023/09/11 08:02:07;;;;;;;10.45;5.00;;;24.70;99.90;;;;;;5006816;28;20227;-63
2023/09/11 08:04:35;;;;;;;13.27;6.28;;;24.70;99.90;;;;;;5004380;28;20246;-63
2023/09/11 08:07:05;;;;;;;11.07;5.22;;;24.80;99.90;;;;;;5006978;28;20338;-63
2023/09/11 08:09:32;;;;;;;11.30;5.68;;;24.90;99.90;;;;;;5004911;28;20211;-63
2023/09/11 08:12:00;;;;;;;5.68;4.68;;;24.90;99.90;;;;;;5008752;28;20256;-63
2023/09/11 08:14:27;;;;;;;7.75;4.95;;;25.00;99.90;;;;;;5008418;28;20626;-63
2023/09/11 08:16:54;;;;;;;7.53;4.65;;;25.00;99.90;;;;;;5008119;28;20293;-63
2023/09/11 08:19:21;;;;;;;8.57;4.63;;;25.10;99.90;;;;;;4985577;28;20368;-63
2023/09/11 08:21:48;;;;;;;5.72;4.35;;;25.10;99.90;;;;;;5007442;28;20195;-63
2023/09/11 08:24:17;;;;;;;6.22;4.13;;;25.10;99.90;;;;;;5005925;28;20733;-63
2023/09/11 08:26:44;;;;;;;5.78;3.70;;;25.20;99.90;;;;;;5007596;28;20195;-63
2023/09/11 08:29:14;;;;;;;4.50;3.67;;;25.20;99.90;;;;;;5003848;28;21089;-63
2023/09/11 08:31:41;;;;;;;5.95;3.33;;;25.30;99.90;;;;;;4997275;28;20313;-63
2023/09/11 08:34:09;;;;;;;3.90;3.60;;;25.40;99.90;;;;;;5005635;28;20333;-63
2023/09/11 08:36:36;;;;;;;4.05;3.38;;;25.50;99.90;;;;;;5007744;28;20211;-63
2023/09/11 08:39:03;;;;;;;3.75;3.45;;;25.50;99.90;;;;;;5005537;28;20580;-63
2023/09/11 08:41:32;;;;;;;3.88;3.40;;;25.60;99.90;;;;;;5009466;28;20234;-63
2023/09/11 08:43:59;;;;;;;3.72;3.42;;;25.70;99.90;;;;;;5007099;28;20290;-63
2023/09/11 08:46:29;;;;;;;3.53;3.22;;;25.80;99.90;;;;;;5006927;28;20276;-63
2023/09/11 08:48:59;;;;;;;5.57;3.28;;;25.90;99.90;;;;;;5002413;28;20225;-62
2023/09/11 08:51:33;;;;;;;3.55;3.20;;;26.00;99.90;;;;;;4993929;28;20207;-63
2023/09/11 08:54:02;;;;;;;3.67;3.33;;;26.10;99.90;;;;;;5006033;28;20207;-63
2023/09/11 08:56:31;;;;;;;4.40;3.50;;;26.00;99.90;;;;;;5006660;28;20266;-63
2023/09/11 08:58:59;;;;;;;4.53;4.03;;;26.00;99.90;;;;;;5007116;28;20229;-62
2023/09/11 09:01:27;;;;;;;3.70;3.13;;;26.00;99.90;;;;;;4986312;28;20309;-63
2023/09/11 09:03:54;;;;;;;4.10;3.67;;;26.00;99.90;;;;;;5004185;28;20731;-63
2023/09/11 09:06:22;;;;;;;8.93;4.00;;;26.00;99.90;;;;;;5005644;28;20256;-63
2023/09/11 09:08:50;;;;;;;4.60;3.80;;;25.90;99.90;;;;;;5004206;28;20199;-63
2023/09/11 09:11:18;;;;;;;8.75;3.60;;;25.90;99.90;;;;;;5004602;28;20206;-63
2023/09/11 09:13:47;;;;;;;6.00;3.28;;;25.90;99.90;;;;;;5006487;28;20217;-63
2023/09/11 09:16:14;;;;;;;7.22;3.22;;;26.00;99.90;;;;;;5007173;28;20195;-63
2023/09/11 09:18:48;;;;;;;7.50;3.92;;;26.00;99.90;;;;;;5004790;28;20226;-63
2023/09/11 09:21:16;;;;;;;3.70;3.40;;;26.10;99.90;;;;;;5006410;28;20195;-63
2023/09/11 09:23:43;;;;;;;9.20;4.00;;;26.10;99.90;;;;;;5006790;28;20226;-63
2023/09/11 09:26:12;;;;;;;9.80;4.50;;;26.20;99.90;;;;;;5004705;28;20257;-63
2023/09/11 09:28:45;;;;;;;4.13;3.72;;;26.30;99.90;;;;;;5005934;28;20199;-63
2023/09/11 09:31:23;;;;;;;4.00;3.60;;;26.30;99.90;;;;;;5005776;28;20273;-63
2023/09/11 09:33:53;;;;;;;7.15;3.97;;;26.40;99.90;;;;;;5003447;28;20207;-63
2023/09/11 09:36:20;;;;;;;4.00;3.60;;;26.50;99.90;;;;;;5006710;28;20201;-63
2023/09/11 09:38:47;;;;;;;4.60;3.80;;;26.60;99.90;;;;;;4992250;28;20548;-63
2023/09/11 09:41:16;;;;;;;9.45;4.93;;;26.70;99.90;;;;;;4989059;28;20633;-63
2023/09/11 09:43:54;;;;;;;6.57;4.10;;;26.80;99.90;;;;;;5006788;28;20190;-63
2023/09/11 09:46:23;;;;;;;4.82;4.25;;;26.80;99.90;;;;;;5004973;28;20218;-63
2023/09/11 09:48:51;;;;;;;5.75;3.92;;;26.90;99.90;;;;;;5005526;28;20224;-63
2023/09/11 09:51:20;;;;;;;5.97;4.57;;;27.00;99.80;;;;;;5003686;28;20279;-63
2023/09/11 09:53:48;;;;;;;6.22;3.95;;;27.10;99.70;;;;;;5004318;28;20298;-63
2023/09/11 09:56:15;;;;;;;4.20;3.83;;;27.40;99.50;;;;;;5006416;28;20187;-63
2023/09/11 09:58:44;;;;;;;4.93;3.53;;;27.50;99.30;;;;;;5006444;28;20231;-64
2023/09/11 10:01:13;;;;;;;5.95;4.10;;;27.70;99.10;;;;;;5006099;28;20222;-63
2023/09/11 10:03:43;;;;;;;3.90;3.58;;;27.80;99.00;;;;;;5003615;28;20277;-63
2023/09/11 10:06:11;;;;;;;4.55;4.22;;;27.80;98.90;;;;;;5004956;28;20195;-63
2023/09/11 10:08:38;;;;;;;4.80;3.95;;;27.90;98.90;;;;;;5012525;28;21042;-63
2023/09/11 10:11:06;;;;;;;4.55;4.22;;;27.90;98.70;;;;;;5009860;28;20206;-63
2023/09/11 10:13:36;;;;;;;3.92;3.60;;;27.90;98.40;;;;;;5023527;28;20238;-63
2023/09/11 10:16:04;;;;;;;3.78;3.50;;;27.80;98.40;;;;;;5004977;28;20209;-63
2023/09/11 10:18:33;;;;;;;4.20;3.83;;;27.90;98.40;;;;;;5006309;28;20207;-64
2023/09/11 10:21:02;;;;;;;3.83;3.53;;;27.80;98.20;;;;;;5004381;28;20215;-63
2023/09/11 10:23:29;;;;;;;3.35;3.15;;;27.70;98.20;;;;;;5007456;28;20191;-63
2023/09/11 10:26:04;;;;;;;3.50;3.25;;;27.70;98.20;;;;;;5003688;28;20265;-63
2023/09/11 10:28:35;;;;;;;3.60;3.28;;;27.70;98.40;;;;;;5007173;28;20276;-63
2023/09/11 10:31:11;;;;;;;3.30;3.10;;;27.70;98.20;;;;;;5004569;28;20217;-63
2023/09/11 10:33:40;;;;;;;3.20;3.00;;;27.70;98.20;;;;;;5005392;28;20535;-63
2023/09/11 10:36:13;;;;;;;4.47;2.80;;;27.70;98.30;;;;;;5005624;28;20242;-63
2023/09/11 10:38:43;;;;;;;2.97;2.75;;;27.60;98.30;;;;;;5003812;28;20194;-63
2023/09/11 10:41:10;;;;;;;3.00;2.80;;;27.60;98.40;;;;;;5005396;28;20231;-63
2023/09/11 10:43:37;;;;;;;2.88;2.67;;;27.60;98.40;;;;;;5005691;28;20268;-63
2023/09/11 10:46:36;;;;;;;3.13;2.92;;;27.50;98.40;;;;;;5005928;28;20226;-63
2023/09/11 10:49:15;;;;;;;3.17;2.97;;;27.50;98.40;;;;;;5003253;28;20191;-63
2023/09/11 10:51:43;;;;;;;3.58;3.28;;;27.60;98.40;;;;;;5004388;28;20198;-63
2023/09/11 10:54:13;;;;;;;4.15;3.65;;;27.60;98.30;;;;;;5003547;28;20778;-63
2023/09/11 10:56:40;;;;;;;3.20;3.00;;;27.60;98.20;;;;;;5004925;28;20195;-63
2023/09/11 10:59:07;;;;;;;3.40;3.20;;;27.70;98.20;;;;;;5006868;28;20222;-63
2023/09/11 11:01:34;;;;;;;3.45;3.25;;;27.70;98.20;;;;;;5001896;28;20602;-63
2023/09/11 11:04:03;;;;;;;4.00;3.70;;;27.80;98.00;;;;;;4991023;28;20223;-63
2023/09/11 11:06:31;;;;;;;5.10;3.35;;;27.80;98.00;;;;;;5005297;28;20190;-63
2023/09/11 11:08:59;;;;;;;3.53;3.30;;;27.90;97.90;;;;;;5005227;28;20207;-63
2023/09/11 11:11:29;;;;;;;3.55;3.35;;;27.90;98.10;;;;;;5006653;28;20616;-63
2023/09/11 11:14:11;;;;;;;3.28;3.08;;;27.90;97.60;;;;;;4993222;28;20282;-63
2023/09/11 11:16:39;;;;;;;3.08;2.88;;;28.00;97.50;;;;;;5000407;28;20518;-63
2023/09/11 11:19:06;;;;;;;4.13;3.00;;;28.00;97.40;;;;;;5005053;28;22128;-63
2023/09/11 11:21:41;;;;;;;3.20;3.00;;;28.10;97.40;;;;;;5004343;28;20688;-63
2023/09/11 11:24:11;;;;;;;3.47;3.28;;;28.10;97.40;;;;;;5003358;28;20191;-63
2023/09/11 11:26:40;;;;;;;3.63;3.35;;;28.20;97.30;;;;;;5005216;28;20191;-63
2023/09/11 11:29:07;;;;;;;3.53;3.33;;;28.20;97.10;;;;;;5007110;28;20209;-63
2023/09/11 11:31:35;;;;;;;3.20;3.00;;;28.30;97.10;;;;;;4994403;28;20203;-63
2023/09/11 11:34:04;;;;;;;3.38;3.17;;;28.30;97.00;;;;;;5007356;28;22003;-63
2023/09/11 11:36:31;;;;;;;3.17;2.97;;;28.30;97.00;;;;;;5021963;28;20237;-63
2023/09/11 11:38:59;;;;;;;3.38;3.17;;;28.30;96.90;;;;;;5030355;28;20304;-63
2023/09/11 11:41:30;;;;;;;3.10;2.90;;;28.30;96.70;;;;;;5026245;28;20226;-63
2023/09/11 11:43:58;;;;;;;3.22;3.03;;;28.30;96.70;;;;;;5008319;28;20464;-63
2023/09/11 11:46:28;;;;;;;3.20;3.00;;;28.30;96.70;;;;;;5001158;28;20277;-63
2023/09/11 11:48:55;;;;;;;2.72;2.53;;;28.30;96.70;;;;;;5006842;28;20503;-63
2023/09/11 11:51:28;;;;;;;3.10;2.90;;;28.30;96.60;;;;;;5007779;28;20245;-63
2023/09/11 11:53:55;;;;;;;3.10;2.90;;;28.40;96.50;;;;;;5005513;28;20302;-63
2023/09/11 11:56:23;;;;;;;2.92;2.72;;;28.40;96.40;;;;;;5008613;28;20203;-63
2023/09/11 11:58:55;;;;;;;2.78;2.67;;;28.30;96.30;;;;;;5009646;28;20206;-63
2023/09/11 12:01:22;;;;;;;2.95;2.75;;;28.30;96.20;;;;;;5009397;28;20195;-63
2023/09/11 12:03:50;;;;;;;2.97;2.78;;;28.30;96.20;;;;;;5007023;28;20309;-63
2023/09/11 12:06:19;;;;;;;2.50;2.40;;;28.30;96.20;;;;;;5007449;28;20315;-63
2023/09/11 12:08:47;;;;;;;2.78;2.58;;;28.30;96.20;;;;;;5008155;28;20203;-63
2023/09/11 12:11:14;;;;;;;3.60;3.30;;;28.30;96.10;;;;;;5006335;28;20244;-63
2023/09/11 12:13:42;;;;;;;2.80;2.70;;;28.30;96.10;;;;;;4994362;28;20220;-62
2023/09/11 12:16:11;;;;;;;3.00;2.80;;;28.30;96.00;;;;;;5007034;28;20444;-63
2023/09/11 12:18:42;;;;;;;2.85;2.67;;;28.30;95.90;;;;;;5006057;28;20273;-63
2023/09/11 12:21:09;;;;;;;2.72;2.60;;;28.30;95.90;;;;;;5006811;28;20282;-63
2023/09/11 12:23:37;;;;;;;2.75;2.65;;;28.30;95.90;;;;;;5005414;28;21103;-63
2023/09/11 12:26:05;;;;;;;3.00;2.80;;;28.40;95.90;;;;;;5004995;28;20194;-63
2023/09/11 12:28:33;;;;;;;2.78;2.67;;;28.40;95.80;;;;;;5006419;28;20207;-63
2023/09/11 12:31:00;;;;;;;3.10;2.70;;;28.50;95.80;;;;;;5015356;28;20820;-63
2023/09/11 12:33:34;;;;;;;2.53;2.42;;;28.50;95.80;;;;;;5021894;28;20696;-63
2023/09/11 12:36:01;;;;;;;2.40;2.30;;;28.50;95.70;;;;;;5027467;28;20201;-63
2023/09/11 12:38:28;;;;;;;2.53;2.42;;;28.50;95.70;;;;;;5010732;28;20213;-62
2023/09/11 12:40:56;;;;;;;2.67;2.58;;;28.40;95.70;;;;;;5005964;28;20584;-62
2023/09/11 12:43:23;;;;;;;3.10;2.90;;;28.40;95.70;;;;;;5006538;28;20205;-62
2023/09/11 12:45:51;;;;;;;3.03;2.88;;;28.40;95.70;;;;;;5008607;28;21132;-63
2023/09/11 12:48:18;;;;;;;3.42;3.22;;;28.60;95.70;;;;;;5007052;28;20821;-63
2023/09/11 12:50:47;;;;;;;3.03;2.83;;;28.90;95.40;;;;;;5004973;28;20290;-62